IBE629 SPJC-SPZO
Flight info
| Callsign | IBE629 |
|---|---|
| Flight time | N/A |
| Altitude | 41000 |
| Route | LIMA5F JCL DCT LPA DCT AND DCT ZCO DCT |
| Aircraft | A359/H-V/N |
Departure
| Time | 2026-04-29 11:33 |
|---|---|
| Airport | Jorge Chávez International Airport (SPJC) |
Arrival
| Time | N/A |
|---|---|
| Airport | Alejandro Velasco Astete International Airport (SPZO) |
| Time | Latitude | Longitude | Altitude | Speed | Heading |
|---|---|---|---|---|---|
| 2026-04-29 11:02 | -12.02523 | -77.10966 | 77 ft | 0 kts | 332° |
| 2026-04-29 11:03 | -12.02505 | -77.10996 | 65 ft | 13 kts | 295° |
| 2026-04-29 11:04 | -12.02460 | -77.11080 | 85 ft | 11 kts | 307° |
| 2026-04-29 11:04 | -12.02456 | -77.11155 | 85 ft | 12 kts | 252° |
| 2026-04-29 11:04 | -12.02495 | -77.11229 | 87 ft | 12 kts | 236° |
| 2026-04-29 11:04 | -12.02534 | -77.11310 | 88 ft | 14 kts | 250° |
| 2026-04-29 11:05 | -12.02548 | -77.11412 | 81 ft | 15 kts | 293° |
| 2026-04-29 11:05 | -12.02459 | -77.11472 | 67 ft | 17 kts | 334° |
| 2026-04-29 11:05 | -12.02340 | -77.11532 | 66 ft | 21 kts | 332° |
| 2026-04-29 11:05 | -12.02196 | -77.11603 | 63 ft | 25 kts | 334° |
| 2026-04-29 11:06 | -12.02031 | -77.11684 | 60 ft | 28 kts | 334° |
| 2026-04-29 11:06 | -12.01883 | -77.11758 | 56 ft | 21 kts | 334° |
| 2026-04-29 11:06 | -12.01841 | -77.11854 | 55 ft | 16 kts | 258° |
| 2026-04-29 11:06 | -12.01883 | -77.11944 | 57 ft | 14 kts | 243° |
| 2026-04-29 11:07 | -12.01929 | -77.12041 | 58 ft | 16 kts | 244° |
| 2026-04-29 11:07 | -12.01979 | -77.12145 | 62 ft | 17 kts | 244° |
| 2026-04-29 11:07 | -12.02035 | -77.12257 | 62 ft | 18 kts | 243° |
| 2026-04-29 11:07 | -12.02092 | -77.12376 | 63 ft | 19 kts | 244° |
| 2026-04-29 11:08 | -12.02083 | -77.12496 | 62 ft | 18 kts | 318° |
| 2026-04-29 11:08 | -12.01970 | -77.12555 | 69 ft | 20 kts | 334° |
| 2026-04-29 11:08 | -12.01684 | -77.12696 | 83 ft | 47 kts | 332° |
| 2026-04-29 11:08 | -12.01406 | -77.12834 | 89 ft | 47 kts | 335° |
| 2026-04-29 11:09 | -12.01253 | -77.12911 | 92 ft | 21 kts | 348° |
| 2026-04-29 11:09 | -12.01162 | -77.12955 | 93 ft | 10 kts | 310° |
| 2026-04-29 11:09 | -12.01160 | -77.12994 | 97 ft | 5 kts | 261° |
| 2026-04-29 11:09 | -12.01166 | -77.13010 | 99 ft | 0 kts | 247° |
| 2026-04-29 11:22 | -12.01184 | -77.13050 | 100 ft | 14 kts | 240° |
| 2026-04-29 11:22 | -12.01273 | -77.13074 | 96 ft | 16 kts | 158° |
| 2026-04-29 11:23 | -12.01287 | -77.13067 | 96 ft | 0 kts | 154° |
| 2026-04-29 11:30 | -12.01292 | -77.13065 | 97 ft | 0 kts | 154° |
| 2026-04-29 11:31 | -12.01345 | -77.13050 | 93 ft | 1 kts | 191° |
| 2026-04-29 11:32 | -12.01349 | -77.13053 | 92 ft | 0 kts | 206° |
| 2026-04-29 11:32 | -12.01500 | -77.12975 | 91 ft | 50 kts | 163° |
| 2026-04-29 11:33 | -12.09439 | -77.14438 | 35570 ft | 448 kts | 0° |
| 2026-04-29 11:34 | -12.07130 | -77.14305 | 35587 ft | 385 kts | 0° |
| 2026-04-29 11:34 | -12.04696 | -77.14106 | 35543 ft | 376 kts | 5° |
| 2026-04-29 11:34 | -12.02162 | -77.13731 | 35484 ft | 360 kts | 7° |
| 2026-04-29 11:34 | -11.99861 | -77.12874 | 35346 ft | 352 kts | 31° |
| 2026-04-29 11:35 | -11.98337 | -77.10950 | 35057 ft | 356 kts | 64° |
| 2026-04-29 11:35 | -11.98033 | -77.08444 | 34586 ft | 364 kts | 97° |
| 2026-04-29 11:35 | -11.99001 | -77.06061 | 34130 ft | 365 kts | 125° |
| 2026-04-29 11:35 | -12.00537 | -77.04088 | 34440 ft | 343 kts | 127° |
| 2026-04-29 11:36 | -12.02003 | -77.02286 | 35309 ft | 319 kts | 129° |
| 2026-04-29 11:36 | -12.03406 | -77.00580 | 35734 ft | 313 kts | 129° |
| 2026-04-29 11:36 | -12.04823 | -76.98869 | 35852 ft | 317 kts | 129° |
| 2026-04-29 11:36 | -12.06259 | -76.97139 | 35946 ft | 322 kts | 129° |
| 2026-04-29 11:37 | -12.09064 | -76.93499 | 36100 ft | 329 kts | 118° |
| 2026-04-29 11:37 | -12.10177 | -76.91439 | 36204 ft | 334 kts | 114° |
| 2026-04-29 11:37 | -12.11244 | -76.89310 | 36300 ft | 340 kts | 114° |
| 2026-04-29 11:38 | -12.13449 | -76.84948 | 36469 ft | 351 kts | 114° |
| 2026-04-29 11:38 | -12.14206 | -76.83483 | 36588 ft | 353 kts | 114° |
| 2026-04-29 11:38 | -12.15753 | -76.80488 | 36784 ft | 360 kts | 114° |
| 2026-04-29 11:39 | -12.16934 | -76.78243 | 36901 ft | 366 kts | 113° |
| 2026-04-29 11:39 | -12.18173 | -76.75951 | 37009 ft | 371 kts | 115° |
| 2026-04-29 11:39 | -12.19417 | -76.73617 | 37131 ft | 377 kts | 112° |
| 2026-04-29 11:39 | -12.20251 | -76.72046 | 37217 ft | 381 kts | 113° |
| 2026-04-29 11:40 | -12.21523 | -76.69649 | 37359 ft | 386 kts | 113° |
| 2026-04-29 11:40 | -12.22830 | -76.67182 | 37505 ft | 392 kts | 114° |
| 2026-04-29 11:40 | -12.24123 | -76.64738 | 37664 ft | 398 kts | 114° |
| 2026-04-29 11:40 | -12.25441 | -76.62225 | 37809 ft | 404 kts | 113° |
| 2026-04-29 11:41 | -12.26770 | -76.59669 | 37924 ft | 410 kts | 113° |
| 2026-04-29 11:41 | -12.28120 | -76.57078 | 38082 ft | 416 kts | 113° |
| 2026-04-29 11:41 | -12.29489 | -76.54451 | 38206 ft | 422 kts | 113° |
| 2026-04-29 11:41 | -12.30875 | -76.51785 | 38358 ft | 427 kts | 113° |
| 2026-04-29 11:42 | -12.32270 | -76.49081 | 38551 ft | 433 kts | 114° |
| 2026-04-29 11:42 | -12.33654 | -76.46329 | 38715 ft | 438 kts | 114° |
| 2026-04-29 11:42 | -12.35020 | -76.43516 | 38824 ft | 444 kts | 114° |
| 2026-04-29 11:42 | -12.36387 | -76.40667 | 38958 ft | 450 kts | 114° |
| 2026-04-29 11:43 | -12.37768 | -76.37776 | 39150 ft | 454 kts | 114° |
| 2026-04-29 11:43 | -12.39153 | -76.34869 | 39447 ft | 456 kts | 114° |
| 2026-04-29 11:43 | -12.40538 | -76.31944 | 39750 ft | 456 kts | 114° |
| 2026-04-29 11:43 | -12.41917 | -76.29020 | 40085 ft | 457 kts | 114° |
| 2026-04-29 11:44 | -12.43295 | -76.26089 | 40405 ft | 458 kts | 114° |
| 2026-04-29 11:44 | -12.44671 | -76.23144 | 40732 ft | 459 kts | 113° |
| 2026-04-29 11:44 | -12.46052 | -76.20187 | 41034 ft | 461 kts | 113° |
| 2026-04-29 11:44 | -12.47438 | -76.17213 | 41076 ft | 466 kts | 113° |
| 2026-04-29 11:45 | -12.50216 | -76.11220 | 41076 ft | 470 kts | 114° |
| 2026-04-29 11:45 | -12.53001 | -76.05163 | 41121 ft | 470 kts | 113° |
| 2026-04-29 11:46 | -12.55787 | -75.99100 | 41085 ft | 470 kts | 113° |
| 2026-04-29 11:46 | -12.58557 | -75.93049 | 41089 ft | 469 kts | 113° |
| 2026-04-29 11:47 | -12.61327 | -75.86989 | 41131 ft | 470 kts | 113° |
| 2026-04-29 11:47 | -12.64087 | -75.80950 | 41139 ft | 470 kts | 113° |
| 2026-04-29 11:48 | -12.66862 | -75.74885 | 41176 ft | 469 kts | 113° |
| 2026-04-29 11:48 | -12.69625 | -75.68843 | 41157 ft | 468 kts | 113° |
| 2026-04-29 11:49 | -12.72383 | -75.62808 | 41225 ft | 467 kts | 113° |
| 2026-04-29 11:49 | -12.75135 | -75.56769 | 41222 ft | 468 kts | 113° |
| 2026-04-29 11:50 | -12.77891 | -75.50697 | 41219 ft | 471 kts | 113° |
| 2026-04-29 11:50 | -12.80643 | -75.44634 | 41250 ft | 471 kts | 113° |
| 2026-04-29 11:51 | -12.83403 | -75.38550 | 41259 ft | 470 kts | 113° |
| 2026-04-29 11:51 | -12.86171 | -75.32471 | 41289 ft | 469 kts | 113° |
| 2026-04-29 11:52 | -12.88930 | -75.26408 | 41278 ft | 469 kts | 113° |
| 2026-04-29 11:52 | -12.91678 | -75.20347 | 41304 ft | 469 kts | 113° |
| 2026-04-29 11:53 | -12.94420 | -75.14284 | 41299 ft | 469 kts | 113° |
| 2026-04-29 11:53 | -12.97160 | -75.08211 | 41301 ft | 469 kts | 112° |
| 2026-04-29 11:54 | -12.99870 | -75.02178 | 41324 ft | 468 kts | 112° |
| 2026-04-29 11:54 | -13.02580 | -74.96114 | 41313 ft | 468 kts | 112° |
| 2026-04-29 11:55 | -13.05286 | -74.90036 | 41322 ft | 468 kts | 112° |
| 2026-04-29 11:55 | -13.08001 | -74.83959 | 41342 ft | 469 kts | 112° |
| 2026-04-29 11:56 | -13.10719 | -74.77871 | 41353 ft | 469 kts | 112° |
| 2026-04-29 11:56 | -13.13432 | -74.71774 | 41353 ft | 469 kts | 112° |
| 2026-04-29 11:57 | -13.16179 | -74.65592 | 41348 ft | 484 kts | 112° |
| 2026-04-29 11:57 | -13.19008 | -74.59201 | 41374 ft | 500 kts | 112° |
| 2026-04-29 11:58 | -13.21920 | -74.52607 | 41366 ft | 514 kts | 112° |
| 2026-04-29 11:58 | -13.24901 | -74.45836 | 41392 ft | 526 kts | 112° |
| 2026-04-29 11:59 | -13.27900 | -74.39010 | 41387 ft | 528 kts | 112° |
| 2026-04-29 11:59 | -13.30146 | -74.31880 | 41401 ft | 523 kts | 97° |
| 2026-04-29 12:00 | -13.30673 | -74.24479 | 41401 ft | 519 kts | 88° |
| 2026-04-29 12:00 | -13.30626 | -74.17073 | 41400 ft | 518 kts | 86° |
| 2026-04-29 12:01 | -13.30469 | -74.09670 | 41396 ft | 519 kts | 86° |
| 2026-04-29 12:01 | -13.30340 | -74.02266 | 41350 ft | 518 kts | 88° |
| 2026-04-29 12:02 | -13.30327 | -73.98569 | 41494 ft | 517 kts | 89° |
| 2026-04-29 12:02 | -13.30436 | -73.94875 | 41679 ft | 517 kts | 91° |
| 2026-04-29 12:02 | -13.30484 | -73.91179 | 41554 ft | 518 kts | 87° |
| 2026-04-29 12:02 | -13.30416 | -73.87477 | 41364 ft | 517 kts | 86° |
| 2026-04-29 12:03 | -13.30196 | -73.80090 | 41344 ft | 518 kts | 86° |
| 2026-04-29 12:03 | -13.30026 | -73.72700 | 41319 ft | 518 kts | 86° |
| 2026-04-29 12:04 | -13.29911 | -73.65309 | 41320 ft | 518 kts | 87° |
| 2026-04-29 12:04 | -13.29813 | -73.57919 | 41293 ft | 518 kts | 87° |
| 2026-04-29 12:05 | -13.29713 | -73.50530 | 41265 ft | 517 kts | 87° |
| 2026-04-29 12:05 | -13.29610 | -73.43193 | 41268 ft | 517 kts | 87° |
| 2026-04-29 12:06 | -13.29507 | -73.35806 | 41252 ft | 518 kts | 87° |
| 2026-04-29 12:06 | -13.29394 | -73.28422 | 41249 ft | 518 kts | 86° |
| 2026-04-29 12:07 | -13.29265 | -73.21016 | 41247 ft | 519 kts | 86° |
| 2026-04-29 12:07 | -13.29145 | -73.13604 | 41245 ft | 519 kts | 86° |
| 2026-04-29 12:08 | -13.29030 | -73.06188 | 41244 ft | 519 kts | 86° |
| 2026-04-29 12:08 | -13.28916 | -72.98770 | 41247 ft | 519 kts | 86° |
| 2026-04-29 12:09 | -13.28799 | -72.91356 | 41245 ft | 520 kts | 86° |
| 2026-04-29 12:09 | -13.28679 | -72.83922 | 41241 ft | 520 kts | 86° |
| 2026-04-29 12:10 | -13.28557 | -72.76497 | 41222 ft | 520 kts | 86° |
| 2026-04-29 12:10 | -13.28432 | -72.69072 | 41223 ft | 520 kts | 86° |
| 2026-04-29 12:11 | -13.28304 | -72.61651 | 41216 ft | 520 kts | 86° |
| 2026-04-29 12:11 | -13.28177 | -72.54262 | 41211 ft | 520 kts | 86° |
| 2026-04-29 12:12 | -13.28046 | -72.46831 | 41198 ft | 520 kts | 86° |
| 2026-04-29 12:12 | -13.27913 | -72.39419 | 41203 ft | 520 kts | 86° |
| 2026-04-29 12:13 | -13.27779 | -72.31998 | 41200 ft | 520 kts | 86° |
| 2026-04-29 12:13 | -13.27642 | -72.24579 | 41190 ft | 520 kts | 86° |
| 2026-04-29 12:14 | -13.27501 | -72.17141 | 41194 ft | 522 kts | 86° |
| 2026-04-29 12:14 | -13.27358 | -72.09681 | 41171 ft | 523 kts | 86° |
| 2026-04-29 12:15 | -13.27214 | -72.02212 | 41160 ft | 522 kts | 86° |
| 2026-04-29 12:15 | -13.27070 | -71.94799 | 41186 ft | 522 kts | 86° |
| 2026-04-29 12:16 | -13.26921 | -71.87345 | 41182 ft | 523 kts | 86° |
| 2026-04-29 12:16 | -13.26769 | -71.79865 | 41170 ft | 524 kts | 86° |
| 2026-04-29 12:17 | -13.26614 | -71.72384 | 41174 ft | 524 kts | 86° |
| 2026-04-29 12:17 | -13.26458 | -71.64906 | 41153 ft | 524 kts | 86° |
| 2026-04-29 12:18 | -13.26301 | -71.57428 | 41157 ft | 524 kts | 86° |
| 2026-04-29 12:18 | -13.26142 | -71.49964 | 41135 ft | 523 kts | 86° |
| 2026-04-29 12:19 | -13.25980 | -71.42505 | 41134 ft | 523 kts | 86° |
| 2026-04-29 12:19 | -13.25815 | -71.35044 | 41135 ft | 523 kts | 86° |
| 2026-04-29 12:20 | -13.25649 | -71.27584 | 41120 ft | 523 kts | 86° |
| 2026-04-29 12:20 | -13.25567 | -71.23876 | 40976 ft | 517 kts | 86° |
| 2026-04-29 12:20 | -13.25484 | -71.20186 | 40469 ft | 515 kts | 86° |
| 2026-04-29 12:21 | -13.25625 | -71.16539 | 39723 ft | 524 kts | 98° |
| 2026-04-29 12:21 | -13.26681 | -71.12954 | 38971 ft | 527 kts | 114° |
| 2026-04-29 12:21 | -13.28640 | -71.09769 | 37938 ft | 530 kts | 130° |
| 2026-04-29 12:21 | -13.31369 | -71.07241 | 36886 ft | 527 kts | 153° |
| 2026-04-29 12:22 | -13.34488 | -71.05276 | 35687 ft | 529 kts | 155° |
| 2026-04-29 12:22 | -13.37730 | -71.03414 | 34739 ft | 538 kts | 157° |
| 2026-04-29 12:22 | -13.41035 | -71.01622 | 34130 ft | 536 kts | 158° |
| 2026-04-29 12:22 | -13.44396 | -70.99970 | 33364 ft | 534 kts | 163° |
| 2026-04-29 12:23 | -13.47951 | -70.98904 | 32470 ft | 533 kts | 172° |
| 2026-04-29 12:23 | -13.51641 | -70.98533 | 31308 ft | 534 kts | 187° |
| 2026-04-29 12:23 | -13.55246 | -70.99346 | 29841 ft | 526 kts | 206° |
| 2026-04-29 12:23 | -13.58193 | -71.00720 | 23923 ft | 505 kts | 205° |